Edmonds, Washington
Current Conditions -  °F | °C
As of 9:53 PM on Thursday 18 Dec 2014 (Local Time) from KPAE Reporting Station
Light Rain Light Rain  
Wind Chill: 40°   Ceiling: 5000
Heat Index: 46°   Visibility: 7mi
Dew Point: 42°   Wind: 14mph
Humidity: 86%   Direction: 150°SSE
Pressure: 29.73"   Gusts: 22mph
Location:  47.81°N, 122.37°W
Report Text: KPAE 190553Z AUTO 15012G19KT 7SM -RA SCT042 OVC050 08/06 A2973 RMK AO2 SLP069 P0004 60022 T00780056 10089 20078 55004 TSNO
Loading
Personal Weather Stations






























Interactive Weather Map New forecast layout! Learn more

10-Day Weather Forecast

Advertisements
Track Severe Weather on mobile